createdAt,value
2019-03-28T00:00:38.029Z,13.35
2019-03-28T00:03:07.444Z,14.73
2019-03-28T00:05:36.869Z,15.20
2019-03-28T00:08:06.191Z,13.10
2019-03-28T00:10:35.528Z,13.90
2019-03-28T00:13:05.154Z,12.95
2019-03-28T00:15:34.712Z,13.90
2019-03-28T00:18:04.081Z,15.95
2019-03-28T00:20:33.427Z,11.50
2019-03-28T00:23:25.020Z,13.68
2019-03-28T00:25:54.419Z,13.72
2019-03-28T00:28:23.748Z,13.22
2019-03-28T00:30:53.073Z,13.85
2019-03-28T00:33:22.479Z,13.90
2019-03-28T00:35:51.947Z,14.53
2019-03-28T00:38:21.251Z,13.72
2019-03-28T00:40:50.624Z,12.70
2019-03-28T00:43:19.941Z,12.95
2019-03-28T00:45:49.307Z,15.35
2019-03-28T00:48:18.584Z,13.93
2019-03-28T00:50:48.025Z,14.13
2019-03-28T00:53:17.335Z,14.13
2019-03-28T00:55:46.684Z,13.10
2019-03-28T00:58:15.996Z,13.85
2019-03-28T01:00:45.425Z,12.98
2019-03-28T01:03:14.733Z,16.62
2019-03-28T01:05:44.031Z,14.33
2019-03-28T01:08:13.476Z,14.43
2019-03-28T01:10:43.077Z,13.65
2019-03-28T01:13:14.498Z,13.80
2019-03-28T01:15:43.953Z,13.85
2019-03-28T01:18:13.250Z,13.40
2019-03-28T01:20:42.618Z,12.85
2019-03-28T01:23:11.945Z,12.47
2019-03-28T01:25:41.281Z,11.80
2019-03-28T01:28:10.557Z,12.70
2019-03-28T01:30:39.889Z,13.15
2019-03-28T01:33:09.232Z,13.35
2019-03-28T01:35:38.588Z,13.18
2019-03-28T01:38:07.957Z,13.18
2019-03-28T01:40:37.309Z,12.60
2019-03-28T01:43:06.657Z,13.72
2019-03-28T01:45:35.954Z,12.68
2019-03-28T01:48:05.397Z,13.95
2019-03-28T01:50:34.790Z,12.60
2019-03-28T01:53:04.085Z,13.10
2019-03-28T01:55:33.417Z,14.40
2019-03-28T01:58:02.821Z,14.25
2019-03-28T02:00:32.216Z,13.45
2019-03-28T02:03:01.542Z,14.80
2019-03-28T02:05:30.938Z,15.65
2019-03-28T02:08:02.636Z,14.95
2019-03-28T02:10:31.404Z,15.23
2019-03-28T02:13:00.813Z,14.18
2019-03-28T02:15:30.246Z,14.15
2019-03-28T02:17:59.581Z,13.10
2019-03-28T02:20:28.853Z,13.28
2019-03-28T02:22:58.239Z,12.73
2019-03-28T02:25:27.565Z,14.68
2019-03-28T02:27:56.895Z,13.05
2019-03-28T02:30:32.503Z,14.30
2019-03-28T02:33:02.189Z,12.88
2019-03-28T02:35:31.533Z,14.70
2019-03-28T02:38:01.033Z,12.85
2019-03-28T02:40:30.339Z,13.43
2019-03-28T02:42:59.820Z,13.75
2019-03-28T02:45:29.922Z,14.00
2019-03-28T02:48:23.476Z,13.03
2019-03-28T02:50:52.834Z,12.90
2019-03-28T02:53:22.249Z,14.07
2019-03-28T02:55:51.565Z,14.40
2019-03-28T02:58:20.954Z,15.03
2019-03-28T03:00:50.498Z,15.63
2019-03-28T03:03:19.798Z,15.32
2019-03-28T03:05:49.094Z,16.10
2019-03-28T03:08:18.396Z,15.05
2019-03-28T03:10:47.729Z,16.57
2019-03-28T03:13:17.028Z,15.83
2019-03-28T03:15:46.412Z,15.20
2019-03-28T03:18:15.762Z,15.13
2019-03-28T03:20:45.145Z,16.27
2019-03-28T03:23:14.465Z,15.10
2019-03-28T03:25:43.776Z,14.83
2019-03-28T03:28:13.097Z,16.80
2019-03-28T03:30:42.475Z,14.83
2019-03-28T03:33:11.798Z,14.38
2019-03-28T03:35:41.133Z,15.60
2019-03-28T03:38:10.466Z,15.25
2019-03-28T03:40:40.028Z,16.87
2019-03-28T03:43:09.344Z,16.77
2019-03-28T03:45:38.708Z,17.55
2019-03-28T03:48:08.057Z,15.15
2019-03-28T03:50:37.389Z,14.53
2019-03-28T03:53:07.517Z,16.55
2019-03-28T03:55:36.945Z,15.55
2019-03-28T03:58:15.697Z,14.85
2019-03-28T04:00:37.710Z,15.25
2019-03-28T04:03:07.101Z,15.63
2019-03-28T04:05:36.419Z,16.93
2019-03-28T04:08:05.826Z,16.17
2019-03-28T04:10:35.780Z,17.82
2019-03-28T04:13:05.179Z,15.28
2019-03-28T04:15:34.615Z,16.93
2019-03-28T04:18:04.014Z,16.12
2019-03-28T04:20:33.351Z,18.25
2019-03-28T04:23:03.842Z,16.65
2019-03-28T04:25:33.479Z,17.15
2019-03-28T04:28:02.991Z,18.30
2019-03-28T04:30:32.356Z,19.77
2019-03-28T04:33:01.739Z,16.42
2019-03-28T04:35:31.194Z,16.65
2019-03-28T04:38:00.672Z,18.00
2019-03-28T04:40:30.064Z,17.50
2019-03-28T04:42:59.507Z,18.82
2019-03-28T04:45:28.876Z,17.65
2019-03-28T04:47:58.429Z,19.15
2019-03-28T04:50:27.742Z,17.05
2019-03-28T04:52:57.196Z,18.23
2019-03-28T04:55:26.589Z,17.90
2019-03-28T04:57:56.131Z,20.62
2019-03-28T05:00:25.577Z,19.65
2019-03-28T05:02:54.925Z,19.80
2019-03-28T05:05:24.313Z,18.92
2019-03-28T05:07:53.680Z,19.02
2019-03-28T05:10:23.001Z,19.23
2019-03-28T05:12:52.330Z,18.20
2019-03-28T05:15:21.706Z,20.43
2019-03-28T05:17:51.008Z,20.57
2019-03-28T05:20:20.633Z,20.02
2019-03-28T05:22:53.181Z,20.30
2019-03-28T05:25:30.371Z,18.98
2019-03-28T05:28:04.874Z,20.92
2019-03-28T05:30:34.532Z,20.55
2019-03-28T05:33:08.502Z,20.95
2019-03-28T05:38:26.499Z,19.17
2019-03-28T05:40:55.973Z,21.75
2019-03-28T05:43:25.626Z,19.07
2019-03-28T05:45:56.315Z,20.32
2019-03-28T05:48:26.118Z,19.65
2019-03-28T05:50:55.673Z,20.43
2019-03-28T05:53:24.985Z,18.82
2019-03-28T05:55:54.561Z,18.85
2019-03-28T05:58:24.017Z,20.30
2019-03-28T06:00:53.612Z,19.90
2019-03-28T06:03:22.986Z,22.00
2019-03-28T06:05:52.455Z,17.95
2019-03-28T06:08:21.830Z,19.75
2019-03-28T06:10:51.248Z,20.02
2019-03-28T06:13:20.810Z,20.17
2019-03-28T06:15:50.240Z,20.88
2019-03-28T06:18:20.307Z,17.35
2019-03-28T06:20:49.730Z,19.25
2019-03-28T06:23:19.049Z,19.50
2019-03-28T06:25:49.494Z,18.35
2019-03-28T06:28:19.010Z,17.90
2019-03-28T06:30:48.432Z,21.02
2019-03-28T06:33:17.792Z,18.80
2019-03-28T06:35:47.305Z,19.98
2019-03-28T06:38:17.615Z,19.45
2019-03-28T06:40:46.989Z,21.85
2019-03-28T06:43:16.369Z,23.22
2019-03-28T06:45:45.720Z,21.40
2019-03-28T06:48:15.077Z,20.45
2019-03-28T06:50:44.369Z,22.67
2019-03-28T06:53:13.726Z,19.77
2019-03-28T06:55:43.149Z,20.40
2019-03-28T06:58:12.562Z,19.27
2019-03-28T07:04:11.079Z,19.80
2019-03-28T07:06:40.644Z,20.77
2019-03-28T07:09:10.411Z,20.08
2019-03-28T07:11:40.280Z,20.88
2019-03-28T07:14:09.734Z,17.55
2019-03-28T07:16:39.037Z,17.05
2019-03-28T07:19:08.476Z,18.50
2019-03-28T07:21:37.933Z,18.35
2019-03-28T07:24:07.649Z,17.90
2019-03-28T07:26:37.082Z,18.95
2019-03-28T07:29:06.462Z,19.87
2019-03-28T07:31:35.988Z,19.65
2019-03-28T07:34:05.409Z,18.73
2019-03-28T07:36:34.828Z,15.85
2019-03-28T07:39:05.873Z,20.77
2019-03-28T07:41:35.372Z,17.95
2019-03-28T07:44:04.908Z,18.30
2019-03-28T07:46:34.378Z,18.95
2019-03-28T07:49:03.782Z,19.25
2019-03-28T07:51:33.711Z,19.70
2019-03-28T07:54:03.206Z,21.30
2019-03-28T07:56:32.651Z,18.82
2019-03-28T07:59:02.033Z,17.52
2019-03-28T08:01:31.437Z,16.35
2019-03-28T08:04:00.784Z,17.12
2019-03-28T08:06:30.149Z,17.80
2019-03-28T08:08:59.590Z,17.12
2019-03-28T08:11:29.038Z,17.30
2019-03-28T08:13:58.617Z,17.50
2019-03-28T08:16:28.934Z,17.12
2019-03-28T08:18:58.533Z,17.57
2019-03-28T08:21:27.993Z,15.03
2019-03-28T08:23:57.788Z,15.45
2019-03-28T08:26:30.093Z,16.75
2019-03-28T08:28:58.384Z,18.35
2019-03-28T08:31:27.894Z,17.05
2019-03-28T08:33:57.305Z,17.52
2019-03-28T08:36:28.450Z,17.50
2019-03-28T08:38:57.874Z,18.30
2019-03-28T08:41:27.237Z,15.05
2019-03-28T08:43:56.609Z,17.45
2019-03-28T08:46:26.008Z,19.48
2019-03-28T08:48:55.905Z,18.73
2019-03-28T08:51:27.345Z,16.30
2019-03-28T08:53:56.813Z,17.92
2019-03-28T08:56:27.303Z,17.87
2019-03-28T08:58:56.864Z,18.07
2019-03-28T09:01:27.285Z,17.42
2019-03-28T09:04:33.003Z,17.57
2019-03-28T09:10:59.708Z,14.33
2019-03-28T09:13:28.750Z,15.25
2019-03-28T09:16:48.723Z,16.05
2019-03-28T09:19:16.909Z,15.48
2019-03-28T09:26:54.992Z,14.90
2019-03-28T09:29:24.563Z,14.18
2019-03-28T09:32:00.074Z,15.18
2019-03-28T09:34:29.604Z,15.18
2019-03-28T09:36:59.195Z,16.23
2019-03-28T09:39:30.056Z,13.93
2019-03-28T09:42:02.593Z,15.53
2019-03-28T09:48:01.349Z,14.53
2019-03-28T09:50:31.014Z,13.00
2019-03-28T09:53:03.910Z,12.23
2019-03-28T09:55:33.650Z,13.25
2019-03-28T09:58:03.247Z,12.60
2019-03-28T10:00:34.680Z,12.47
2019-03-28T10:03:10.260Z,12.45
2019-03-28T10:05:41.591Z,11.93
2019-03-28T10:08:16.991Z,11.60
2019-03-28T10:11:09.549Z,13.10
2019-03-28T10:17:36.040Z,11.43
2019-03-28T10:24:02.935Z,13.32
2019-03-28T10:26:42.451Z,11.12
2019-03-28T10:29:11.989Z,12.25
2019-03-28T10:31:41.577Z,12.37
2019-03-28T10:34:11.133Z,11.22
2019-03-28T10:37:03.744Z,11.28
2019-03-28T10:39:33.648Z,10.58
2019-03-28T10:42:03.293Z,10.43
2019-03-28T10:44:33.462Z,11.33
2019-03-28T10:47:04.867Z,8.68
2019-03-28T10:49:41.439Z,8.80
2019-03-28T10:52:13.708Z,9.80
2019-03-28T10:54:46.933Z,8.05
2019-03-28T10:57:29.570Z,7.00
2019-03-28T10:59:52.114Z,7.20
2019-03-28T11:02:36.562Z,7.00
2019-03-28T11:05:27.477Z,7.37
2019-03-28T11:07:57.040Z,6.55
2019-03-28T11:10:30.573Z,6.55
2019-03-28T11:13:05.246Z,5.75
2019-03-28T11:16:04.405Z,7.47
2019-03-28T11:18:34.137Z,7.00
2019-03-28T11:21:09.513Z,7.08
2019-03-28T11:23:39.397Z,6.25
2019-03-28T11:26:31.496Z,8.00
2019-03-28T11:29:03.251Z,6.37
2019-03-28T11:31:45.540Z,6.90
2019-03-28T11:34:10.805Z,6.65
2019-03-28T11:36:40.228Z,7.25
2019-03-28T11:39:10.698Z,5.90
2019-03-28T11:41:52.826Z,6.12
2019-03-28T11:44:28.285Z,6.15
2019-03-28T11:46:58.175Z,6.95
2019-03-28T11:49:27.742Z,7.62
2019-03-28T11:52:02.570Z,7.25
2019-03-28T11:54:32.064Z,7.10
2019-03-28T11:57:01.507Z,6.95
2019-03-28T11:59:38.771Z,6.50
2019-03-28T12:02:19.640Z,6.60
2019-03-28T12:04:39.348Z,8.88
2019-03-28T12:07:15.629Z,7.08
2019-03-28T12:09:45.032Z,7.97
2019-03-28T12:12:14.437Z,7.50
2019-03-28T12:14:43.889Z,7.55
2019-03-28T12:17:13.227Z,7.92
2019-03-28T12:19:42.840Z,8.38
2019-03-28T12:22:12.409Z,9.50
2019-03-28T12:24:43.502Z,8.98
2019-03-28T12:27:12.973Z,9.23
2019-03-28T12:29:43.060Z,7.65
2019-03-28T12:32:19.897Z,8.00
2019-03-28T12:34:49.282Z,7.95
2019-03-28T12:37:18.761Z,8.23
2019-03-28T12:40:00.053Z,8.08
2019-03-28T12:42:29.744Z,7.75
2019-03-28T12:44:59.263Z,7.50
2019-03-28T12:47:41.589Z,7.80
2019-03-28T12:49:59.957Z,7.53
2019-03-28T12:52:29.960Z,7.40
2019-03-28T12:54:59.537Z,7.10
2019-03-28T12:57:28.937Z,7.65
2019-03-28T12:59:58.268Z,8.00
2019-03-28T13:02:31.825Z,8.28
2019-03-28T13:04:58.783Z,9.25
2019-03-28T13:07:28.168Z,8.18
2019-03-28T13:09:57.592Z,10.58
2019-03-28T13:12:27.063Z,8.20
2019-03-28T13:14:56.631Z,8.78
2019-03-28T13:17:25.972Z,7.75
2019-03-28T13:19:55.749Z,8.70
2019-03-28T13:22:25.145Z,9.35
2019-03-28T13:24:54.591Z,8.45
2019-03-28T13:27:34.350Z,9.23
2019-03-28T13:30:02.580Z,7.83
2019-03-28T13:32:41.598Z,7.50
2019-03-28T13:35:08.457Z,7.03
2019-03-28T13:37:38.100Z,7.87
2019-03-28T13:40:07.706Z,8.15
2019-03-28T13:42:41.328Z,7.15
2019-03-28T13:45:11.784Z,7.17
2019-03-28T13:47:41.357Z,7.53
2019-03-28T13:50:11.829Z,8.60
2019-03-28T13:52:41.289Z,7.75
2019-03-28T13:55:11.093Z,8.33
2019-03-28T13:57:43.225Z,7.58
2019-03-28T14:00:12.708Z,7.15
2019-03-28T14:02:55.661Z,7.37
2019-03-28T14:05:13.615Z,6.60
2019-03-28T14:07:43.145Z,7.58
2019-03-28T14:10:12.889Z,7.05
2019-03-28T14:12:42.656Z,7.20
2019-03-28T14:15:12.259Z,8.35
2019-03-28T14:17:42.023Z,8.45
2019-03-28T14:20:11.899Z,7.53
2019-03-28T14:22:41.343Z,7.75
2019-03-28T14:25:11.255Z,8.05
2019-03-28T14:27:40.601Z,8.78
2019-03-28T14:30:11.478Z,9.28
2019-03-28T14:32:52.695Z,7.62
2019-03-28T14:35:12.699Z,8.18
2019-03-28T14:37:42.129Z,8.85
2019-03-28T14:40:11.877Z,7.80
2019-03-28T14:42:41.265Z,7.00
2019-03-28T14:45:11.116Z,7.60
2019-03-28T14:47:40.579Z,7.35
2019-03-28T14:50:10.840Z,7.58
2019-03-28T14:52:40.138Z,8.38
2019-03-28T14:55:09.691Z,8.75
2019-03-28T14:57:40.181Z,7.95
2019-03-28T15:00:50.960Z,6.70
2019-03-28T15:03:27.047Z,7.50
2019-03-28T15:05:55.806Z,7.47
2019-03-28T15:08:25.640Z,6.12
2019-03-28T15:10:55.066Z,7.78
2019-03-28T15:13:24.586Z,6.17
2019-03-28T15:15:54.121Z,7.37
2019-03-28T15:18:29.945Z,7.60
2019-03-28T15:21:02.323Z,7.20
2019-03-28T15:23:31.638Z,6.83
2019-03-28T15:26:01.650Z,5.80
2019-03-28T15:28:31.282Z,5.58
2019-03-28T15:31:00.884Z,7.10
2019-03-28T15:33:39.471Z,6.37
2019-03-28T15:36:01.746Z,6.85
2019-03-28T15:38:31.587Z,7.00
2019-03-28T15:41:01.201Z,7.10
2019-03-28T15:43:30.854Z,7.03
2019-03-28T15:46:00.507Z,7.45
2019-03-28T15:48:30.058Z,6.72
2019-03-28T15:51:05.727Z,6.55
2019-03-28T15:53:35.377Z,6.45
2019-03-28T15:56:04.943Z,7.05
2019-03-28T15:58:37.690Z,7.03
2019-03-28T16:01:07.827Z,8.75
2019-03-28T16:03:52.370Z,6.78
2019-03-28T16:06:11.186Z,7.17
2019-03-28T16:08:40.722Z,7.28
2019-03-28T16:11:10.171Z,6.90
2019-03-28T16:13:39.571Z,6.40
2019-03-28T16:16:09.115Z,7.30
2019-03-28T16:18:44.679Z,5.67
2019-03-28T16:21:21.059Z,7.75
2019-03-28T16:23:55.413Z,7.00
2019-03-28T16:29:29.213Z,6.08
2019-03-28T16:31:59.120Z,6.87
2019-03-28T16:34:31.376Z,6.92
2019-03-28T16:37:08.495Z,6.80
2019-03-28T16:39:44.493Z,6.47
2019-03-28T16:42:25.731Z,5.83
2019-03-28T16:44:57.641Z,6.47
2019-03-28T16:47:27.382Z,9.60
2019-03-28T16:49:57.177Z,6.60
2019-03-28T16:52:26.724Z,6.85
2019-03-28T16:54:56.018Z,6.37
2019-03-28T16:57:25.661Z,6.33
2019-03-28T16:59:55.274Z,7.42
2019-03-28T17:02:25.150Z,5.37
2019-03-28T17:04:54.531Z,5.95
2019-03-28T17:07:25.715Z,5.47
2019-03-28T17:09:56.228Z,5.60
2019-03-28T17:12:25.641Z,5.65
2019-03-28T17:14:55.870Z,5.12
2019-03-28T17:17:25.322Z,5.50
2019-03-28T17:19:54.741Z,5.65
2019-03-28T17:22:24.471Z,5.40
2019-03-28T17:24:53.866Z,5.05
2019-03-28T17:27:23.314Z,5.08
2019-03-28T17:29:52.890Z,5.37
2019-03-28T17:32:25.004Z,4.20
2019-03-28T17:34:56.151Z,4.05
2019-03-28T17:37:25.831Z,5.10
2019-03-28T17:39:56.585Z,4.80
2019-03-28T17:42:26.198Z,4.35
2019-03-28T17:44:55.572Z,3.98
2019-03-28T17:47:24.963Z,4.67
2019-03-28T17:49:54.594Z,5.70
2019-03-28T17:52:24.085Z,3.83
2019-03-28T17:54:56.053Z,5.33
2019-03-28T17:57:25.558Z,4.28
2019-03-28T17:59:54.926Z,5.08
2019-03-28T18:02:24.390Z,4.35
2019-03-28T18:04:54.005Z,4.45
2019-03-28T18:07:23.564Z,4.30
2019-03-28T18:09:53.072Z,4.60
2019-03-28T18:12:22.590Z,4.78
2019-03-28T18:14:53.243Z,4.80
2019-03-28T18:17:23.497Z,5.78
2019-03-28T18:19:53.240Z,5.10
2019-03-28T18:22:22.875Z,4.30
2019-03-28T18:24:53.179Z,4.70
2019-03-28T18:27:23.051Z,4.80
2019-03-28T18:30:13.278Z,5.55
2019-03-28T18:32:50.206Z,4.55
2019-03-28T18:35:30.233Z,4.87
2019-03-28T18:38:00.162Z,4.70
2019-03-28T18:40:37.003Z,4.65
2019-03-28T18:43:06.476Z,4.58
2019-03-28T18:45:35.872Z,5.12
2019-03-28T18:48:08.718Z,5.35
2019-03-28T18:50:36.327Z,4.53
2019-03-28T18:53:05.913Z,4.75
2019-03-28T18:55:35.353Z,4.25
2019-03-28T18:58:05.638Z,4.85
2019-03-28T19:00:35.394Z,5.45
2019-03-28T19:03:04.889Z,4.10
2019-03-28T19:05:34.253Z,3.45
2019-03-28T19:08:03.695Z,5.30
2019-03-28T19:10:33.135Z,6.83
2019-03-28T19:13:04.762Z,4.37
2019-03-28T19:15:33.649Z,4.95
2019-03-28T19:18:03.177Z,4.67
2019-03-28T19:20:33.457Z,4.87
2019-03-28T19:27:02.580Z,3.95
2019-03-28T19:29:32.065Z,4.62
2019-03-28T19:32:02.215Z,6.35
2019-03-28T19:34:55.837Z,4.42
2019-03-28T19:37:25.279Z,5.17
2019-03-28T19:39:56.058Z,4.20
2019-03-28T19:42:28.666Z,5.12
2019-03-28T19:45:04.291Z,5.25
2019-03-28T19:50:35.157Z,7.40
2019-03-28T19:53:05.984Z,4.53
2019-03-28T19:55:42.153Z,4.10
2019-03-28T19:58:15.412Z,5.17
2019-03-28T20:00:48.765Z,4.60
2019-03-28T20:03:18.520Z,4.20
2019-03-28T20:05:50.745Z,5.25
2019-03-28T20:08:20.424Z,5.35
2019-03-28T20:10:50.843Z,5.97
2019-03-28T20:13:20.521Z,4.80
2019-03-28T20:15:53.169Z,5.60
2019-03-28T20:18:25.595Z,5.80
2019-03-28T20:20:55.803Z,5.30
2019-03-28T20:23:27.776Z,6.08
2019-03-28T20:25:58.875Z,6.10
2019-03-28T20:28:48.231Z,5.20
2019-03-28T20:31:18.108Z,6.78
2019-03-28T20:33:54.674Z,5.67
2019-03-28T20:36:36.741Z,7.10
2019-03-28T20:39:03.857Z,6.47
2019-03-28T20:41:27.886Z,5.97
2019-03-28T20:44:03.086Z,6.30
2019-03-28T20:46:35.713Z,5.65
2019-03-28T20:49:05.532Z,5.72
2019-03-28T20:51:44.774Z,7.05
2019-03-28T20:54:16.435Z,7.35
2019-03-28T20:56:51.237Z,6.90
2019-03-28T20:59:51.355Z,7.03
2019-03-28T21:02:28.814Z,6.83
2019-03-28T21:04:59.074Z,7.67
2019-03-28T21:07:33.690Z,7.05
2019-03-28T21:10:04.981Z,7.10
2019-03-28T21:12:35.157Z,7.58
2019-03-28T21:15:05.452Z,7.58
2019-03-28T21:17:35.397Z,6.22
2019-03-28T21:20:05.437Z,6.65
2019-03-28T21:22:35.279Z,6.08
2019-03-28T21:25:05.385Z,7.90
2019-03-28T21:27:35.108Z,6.55
2019-03-28T21:30:05.349Z,7.30
2019-03-28T21:32:57.720Z,7.33
2019-03-28T21:35:39.415Z,9.13
2019-03-28T21:38:14.472Z,7.35
2019-03-28T21:40:51.798Z,6.87
2019-03-28T21:43:17.064Z,6.78
2019-03-28T21:45:49.031Z,6.70
2019-03-28T21:48:24.900Z,6.33
2019-03-28T21:50:56.441Z,8.50
2019-03-28T21:53:28.837Z,7.47
2019-03-28T21:55:59.133Z,7.12
2019-03-28T21:58:30.766Z,6.95
2019-03-28T22:01:01.144Z,8.05
2019-03-28T22:03:57.221Z,7.95
2019-03-28T22:06:27.165Z,8.23
2019-03-28T22:09:16.201Z,7.58
2019-03-28T22:11:47.302Z,7.40
2019-03-28T22:14:20.011Z,9.40
2019-03-28T22:16:50.170Z,7.42
2019-03-28T22:19:20.051Z,7.53
2019-03-28T22:21:49.970Z,7.30
2019-03-28T22:24:23.725Z,7.37
2019-03-28T22:26:59.923Z,7.28
2019-03-28T22:29:32.903Z,7.05
2019-03-28T22:32:24.637Z,6.83
2019-03-28T22:34:56.426Z,6.90
2019-03-28T22:38:20.960Z,7.12
2019-03-28T23:12:58.185Z,7.72
2019-03-28T23:26:44.050Z,8.13
